Time;durP1;ratioP1;P1;durP2;ratioP2;P2;SDS_P1;SDS_P2;PMS_P1;PMS_P2;Temp;Humidity;BMP_temperature;BMP_pressure;BME280_temperature;BME280_humidity;BME280_pressure;Samples;Min_cycle;Max_cycle;Signal;HPM_P1;HPM_P2
2020/12/28 00:01:38;;;;;;;0.53;0.50;;;;;;;-2.75;100.00;101631.89;1809625;78;21710;-50
2020/12/28 00:04:06;;;;;;;0.20;0.20;;;;;;;-2.71;100.00;101636.44;1806315;78;21508;-48
2020/12/28 00:06:33;;;;;;;0.00;0.00;;;;;;;-2.67;100.00;101619.89;1805340;78;21149;-48
2020/12/28 00:09:05;;;;;;;0.25;0.25;;;;;;;-2.62;100.00;101622.09;1800828;78;21118;-48
2020/12/28 00:11:34;;;;;;;0.23;0.23;;;;;;;-2.57;100.00;101619.75;1803607;78;21576;-48
2020/12/28 00:14:01;;;;;;;0.10;0.10;;;;;;;-2.54;100.00;101618.58;1803938;78;21226;-49
2020/12/28 00:16:28;;;;;;;0.10;0.10;;;;;;;-2.50;100.00;101611.88;1803946;78;21435;-48
2020/12/28 00:18:56;;;;;;;1.30;1.30;;;;;;;-2.47;100.00;101613.73;1794300;78;21513;-48
2020/12/28 00:21:24;;;;;;;0.00;0.00;;;;;;;-2.45;100.00;101608.20;1809170;78;21582;-48
2020/12/28 00:23:51;;;;;;;0.47;0.47;;;;;;;-2.42;100.00;101610.57;1805478;78;21233;-48
2020/12/28 00:26:20;;;;;;;0.45;0.45;;;;;;;-2.40;100.00;101615.23;1794129;79;21181;-49
2020/12/28 00:28:47;;;;;;;0.50;0.47;;;;;;;-2.38;100.00;101610.05;1772275;80;20944;-47
2020/12/28 00:31:15;;;;;;;0.30;0.30;;;;;;;-2.34;100.00;101618.60;1761421;80;21134;-48
2020/12/28 00:33:42;;;;;;;0.85;0.78;;;;;;;-2.33;100.00;101600.18;1765945;80;21422;-48
2020/12/28 00:36:15;;;;;;;0.63;0.63;;;;;;;-2.31;100.00;101596.84;1796406;79;21143;-48
2020/12/28 00:38:42;;;;;;;1.77;0.80;;;;;;;-2.25;100.00;101581.46;1803581;79;26366;-48
2020/12/28 00:41:11;;;;;;;0.10;0.10;;;;;;;-2.25;100.00;101581.46;1801372;79;21281;-48
2020/12/28 00:43:42;;;;;;;0.30;0.28;;;;;;;-2.22;100.00;101578.44;1765857;80;21222;-47
2020/12/28 00:46:11;;;;;;;0.62;0.62;;;;;;;-2.19;100.00;101571.41;1766516;80;21257;-48
2020/12/28 00:48:39;;;;;;;0.05;0.05;;;;;;;-2.16;100.00;101568.38;1805963;78;21177;-48
2020/12/28 00:51:06;;;;;;;0.60;0.60;;;;;;;-2.11;100.00;101557.68;1806465;78;21153;-48
2020/12/28 00:53:34;;;;;;;0.10;0.10;;;;;;;-2.08;100.00;101558.67;1808355;78;21131;-48
2020/12/28 00:56:02;;;;;;;0.93;0.88;;;;;;;-2.04;100.00;101560.02;1803727;78;21167;-50
2020/12/28 00:58:36;;;;;;;0.10;0.10;;;;;;;-2.02;100.00;101553.48;1803732;78;21186;-48
2020/12/28 01:01:05;;;;;;;0.03;0.03;;;;;;;-2.01;100.00;101556.48;1762170;79;21489;-48
2020/12/28 01:03:32;;;;;;;0.25;0.25;;;;;;;-1.99;100.00;101554.48;1790418;78;21129;-48
2020/12/28 01:06:20;;;;;;;0.10;0.10;;;;;;;-1.97;100.00;101554.32;1790896;78;21161;-49
2020/12/28 01:08:50;;;;;;;0.10;0.10;;;;;;;-1.96;99.99;101553.30;1803571;78;21161;-48
2020/12/28 01:11:21;;;;;;;0.10;0.10;;;;;;;-1.96;99.75;101547.94;1804533;78;21138;-50
2020/12/28 01:13:50;;;;;;;3.20;0.37;;;;;;;-1.97;99.56;101547.62;1811435;78;21127;-48
2020/12/28 01:16:18;;;;;;;0.90;0.90;;;;;;;-2.00;99.40;101537.25;1812965;78;21135;-49
2020/12/28 01:18:46;;;;;;;0.10;0.10;;;;;;;-2.02;99.23;101533.39;1802457;78;21143;-48
2020/12/28 01:21:22;;;;;;;3.02;0.53;;;;;;;-2.04;99.16;101534.57;1799444;78;21082;-48
2020/12/28 01:23:49;;;;;;;0.78;0.78;;;;;;;-2.07;99.11;101532.24;1790832;78;21138;-48
2020/12/28 01:26:18;;;;;;;0.30;0.30;;;;;;;-2.12;99.03;101528.73;1758369;79;21122;-48
2020/12/28 01:28:47;;;;;;;0.08;0.08;;;;;;;-2.14;98.98;101524.04;1812223;78;21418;-48
2020/12/28 01:31:15;;;;;;;0.47;0.33;;;;;;;-2.16;98.94;101524.20;1808807;78;21241;-49
2020/12/28 01:34:00;;;;;;;2.12;0.50;;;;;;;-2.19;98.94;101521.86;1801350;78;21247;-48
2020/12/28 01:36:29;;;;;;;0.10;0.10;;;;;;;-2.21;98.77;101519.85;1768588;80;21127;-48
2020/12/28 01:38:57;;;;;;;0.10;0.10;;;;;;;-2.23;98.74;101511.14;1771838;80;21150;-48
2020/12/28 01:41:25;;;;;;;0.37;0.37;;;;;;;-2.24;98.67;101496.61;1766495;80;21113;-48
2020/12/28 01:43:54;;;;;;;0.95;0.95;;;;;;;-2.25;98.65;101490.42;1785413;78;21193;-49
2020/12/28 01:46:23;;;;;;;0.25;0.25;;;;;;;-2.24;98.65;101485.90;1800361;78;21455;-49
2020/12/28 01:48:51;;;;;;;0.00;0.00;;;;;;;-2.24;98.64;101480.55;1761156;80;21628;-48
2020/12/28 01:51:21;;;;;;;0.10;0.10;;;;;;;-2.24;98.67;101485.39;1787414;79;21197;-49
2020/12/28 01:53:48;;;;;;;0.60;0.60;;;;;;;-2.23;98.60;101472.32;1763515;79;21169;-49
2020/12/28 01:56:38;;;;;;;1.00;1.00;;;;;;;-2.17;98.59;101477.52;1847804;76;27307;-46
2020/12/28 01:59:08;;;;;;;0.30;0.20;;;;;;;-2.21;98.52;101469.48;1757496;81;21425;-46
2020/12/28 02:01:41;;;;;;;0.80;0.80;;;;;;;-2.20;98.47;101458.61;1733329;82;21157;-46
2020/12/28 02:04:11;;;;;;;0.62;0.53;;;;;;;-2.18;98.35;101455.27;1733128;81;21174;-45
2020/12/28 02:06:51;;;;;;;0.10;0.10;;;;;;;-2.10;98.33;101453.07;1887722;76;29112;-45
2020/12/28 02:09:19;;;;;;;0.10;0.10;;;;;;;-2.13;98.25;101445.86;1803658;78;21132;-45
2020/12/28 02:11:47;;;;;;;0.62;0.62;;;;;;;-2.11;98.15;101441.18;1783581;80;21156;-47
2020/12/28 02:14:16;;;;;;;0.00;0.00;;;;;;;-2.08;98.03;101434.13;1750338;80;21569;-46
2020/12/28 02:17:01;;;;;;;0.10;0.10;;;;;;;-2.02;97.95;101430.78;1887876;76;29047;-46
2020/12/28 02:19:30;;;;;;;0.00;0.00;;;;;;;-2.06;97.79;101431.61;1846624;77;21083;-45
2020/12/28 02:21:59;;;;;;;1.10;1.10;;;;;;;-2.03;97.70;101426.41;1824930;78;21142;-48
2020/12/28 02:24:29;;;;;;;0.08;0.08;;;;;;;-2.02;97.59;101418.73;1824614;77;21383;-48
2020/12/28 02:26:56;;;;;;;0.10;0.10;;;;;;;-2.01;97.55;101419.87;1824974;78;21518;-48
2020/12/28 02:29:24;;;;;;;0.68;0.40;;;;;;;-2.00;97.47;101421.56;1825032;77;21525;-48
2020/12/28 02:31:51;;;;;;;0.20;0.20;;;;;;;-1.99;97.50;101415.19;1824821;78;21117;-48
2020/12/28 02:34:22;;;;;;;0.10;0.10;;;;;;;-1.96;97.49;101416.68;1824710;77;21127;-46
2020/12/28 02:36:51;;;;;;;2.22;0.50;;;;;;;-1.94;97.43;101424.05;1824451;78;21131;-47
2020/12/28 02:39:19;;;;;;;0.35;0.35;;;;;;;-1.92;97.35;101427.39;1825046;77;21087;-46
2020/12/28 02:41:47;;;;;;;0.33;0.33;;;;;;;-1.89;97.25;101436.92;1824744;78;21091;-47
2020/12/28 02:44:32;;;;;;;0.20;0.20;;;;;;;-1.86;97.14;101432.04;1824398;77;21114;-46
2020/12/28 02:47:18;;;;;;;0.28;0.28;;;;;;;-1.82;97.00;101432.03;1824522;78;21549;-46
2020/12/28 02:50:04;;;;;;;1.17;0.98;;;;;;;-1.80;96.97;101432.70;1824427;77;21513;-46
2020/12/28 02:52:50;;;;;;;0.10;0.10;;;;;;;-1.77;96.91;101440.38;1824727;78;21118;-46
2020/12/28 02:55:36;;;;;;;0.28;0.28;;;;;;;-1.74;96.85;101431.98;1824579;77;21360;-48
2020/12/28 02:58:22;;;;;;;0.13;0.13;;;;;;;-1.72;96.79;101432.34;1824733;78;21577;-48
2020/12/28 03:01:10;;;;;;;0.00;0.00;;;;;;;-1.71;96.68;101425.95;1824978;78;21530;-47
2020/12/28 03:03:56;;;;;;;0.98;0.90;;;;;;;-1.67;96.58;101417.91;1824894;77;20980;-47
2020/12/28 03:06:39;;;;;;;0.80;0.72;;;;;;;-1.62;96.55;101410.17;1848412;76;29072;-47
2020/12/28 03:09:25;;;;;;;0.42;0.42;;;;;;;-1.64;96.37;101418.38;1742522;81;21625;-49
2020/12/28 03:12:12;;;;;;;0.28;0.28;;;;;;;-1.63;96.32;101412.50;1725079;83;21198;-48
2020/12/28 03:14:58;;;;;;;0.30;0.30;;;;;;;-1.61;96.08;101414.00;1722336;81;21142;-47
2020/12/28 03:17:44;;;;;;;0.30;0.30;;;;;;;-1.59;96.03;101418.69;1724975;83;21122;-48
2020/12/28 03:20:30;;;;;;;0.00;0.00;;;;;;;-1.56;95.85;101412.14;1722361;81;21107;-49
2020/12/28 03:23:16;;;;;;;0.28;0.28;;;;;;;-1.56;95.77;101400.08;1724874;83;21126;-48
2020/12/28 03:26:02;;;;;;;0.62;0.62;;;;;;;-1.55;95.78;101397.73;1733253;81;21161;-49
2020/12/28 03:28:48;;;;;;;0.00;0.00;;;;;;;-1.53;95.57;101403.77;1733365;81;21515;-48
2020/12/28 03:31:41;;;;;;;0.30;0.30;;;;;;;-1.49;95.55;101402.38;1847636;76;29056;-45
2020/12/28 03:34:27;;;;;;;0.05;0.05;;;;;;;-1.52;95.29;101402.73;1807443;78;21122;-46
2020/12/28 03:37:13;;;;;;;0.00;0.00;;;;;;;-1.50;95.17;101404.75;1786083;80;21659;-48
2020/12/28 03:39:59;;;;;;;0.33;0.33;;;;;;;-1.49;95.15;101395.67;1785921;78;21533;-45
2020/12/28 03:42:45;;;;;;;1.85;0.40;;;;;;;-1.49;95.17;101390.31;1785917;80;21097;-46
2020/12/28 03:45:30;;;;;;;0.05;0.05;;;;;;;-1.49;95.04;101390.31;1786117;78;21174;-47
2020/12/28 03:48:16;;;;;;;0.20;0.20;;;;;;;-1.48;94.97;101390.66;1786197;80;21138;-46
2020/12/28 03:51:02;;;;;;;0.53;0.42;;;;;;;-1.47;94.97;101386.13;1786169;78;21162;-46
2020/12/28 03:53:47;;;;;;;0.45;0.45;;;;;;;-1.47;94.87;101390.98;1786205;78;21180;-45
2020/12/28 03:56:33;;;;;;;0.53;0.53;;;;;;;-1.46;94.89;101377.89;1786214;80;21134;-45
2020/12/28 03:59:19;;;;;;;0.15;0.15;;;;;;;-1.44;94.65;101379.89;1786086;78;21106;-46
2020/12/28 04:02:05;;;;;;;0.90;0.90;;;;;;;-1.42;94.52;101380.55;1786127;80;21118;-45
2020/12/28 04:04:51;;;;;;;0.10;0.10;;;;;;;-1.41;94.42;101384.92;1786078;78;21189;-45
2020/12/28 04:07:37;;;;;;;0.60;0.60;;;;;;;-1.39;94.44;101376.69;1786059;80;21639;-46
2020/12/28 04:10:28;;;;;;;0.40;0.40;;;;;;;-1.34;94.35;101364.91;1822841;76;29055;-45
2020/12/28 04:13:01;;;;;;;0.65;0.65;;;;;;;-1.38;94.20;101369.81;1784381;80;21115;-47
2020/12/28 04:15:28;;;;;;;1.12;0.82;;;;;;;-1.36;94.02;101375.84;1786022;78;21130;-45
2020/12/28 04:17:57;;;;;;;0.17;0.17;;;;;;;-1.34;93.82;101375.13;1785883;80;21141;-47
2020/12/28 04:20:25;;;;;;;1.07;1.05;;;;;;;-1.33;93.64;101378.16;1786280;78;21113;-48
2020/12/28 04:22:54;;;;;;;0.30;0.30;;;;;;;-1.31;93.47;101377.48;1786299;80;21133;-47
2020/12/28 04:25:22;;;;;;;0.10;0.10;;;;;;;-1.30;93.31;101372.42;1786062;78;21150;-47
2020/12/28 04:27:50;;;;;;;0.78;0.47;;;;;;;-1.28;93.19;101368.75;1786012;80;21121;-47
2020/12/28 04:30:17;;;;;;;0.57;0.57;;;;;;;-1.27;93.10;101370.41;1785934;78;21584;-45
2020/12/28 04:32:45;;;;;;;1.02;1.02;;;;;;;-1.26;92.93;101370.72;1786068;80;21150;-45
2020/12/28 04:35:13;;;;;;;0.37;0.37;;;;;;;-1.25;92.73;101374.58;1785899;78;21090;-46
2020/12/28 04:37:42;;;;;;;0.30;0.30;;;;;;;-1.23;92.65;101371.73;1786014;80;21090;-46
2020/12/28 04:40:10;;;;;;;3.47;0.98;;;;;;;-1.23;92.50;101361.00;1785981;78;21457;-46
2020/12/28 04:42:42;;;;;;;0.42;0.40;;;;;;;-1.22;92.33;101352.75;1786039;80;21158;-46
2020/12/28 04:45:10;;;;;;;0.13;0.13;;;;;;;-1.21;92.23;101350.91;1786146;78;24445;-47
2020/12/28 04:47:37;;;;;;;0.30;0.30;;;;;;;-1.21;92.15;101352.24;1786131;80;21151;-46
2020/12/28 04:50:05;;;;;;;0.40;0.40;;;;;;;-1.21;91.96;101340.17;1786067;78;21122;-47
2020/12/28 04:52:36;;;;;;;1.65;1.32;;;;;;;-1.20;92.00;101348.56;1786264;80;21118;-46
2020/12/28 04:55:03;;;;;;;2.87;0.85;;;;;;;-1.18;92.00;101350.56;1786158;78;21106;-46
2020/12/28 04:57:31;;;;;;;0.00;0.00;;;;;;;-1.18;91.98;101346.55;1786322;80;21158;-46
2020/12/28 05:00:00;;;;;;;0.33;0.33;;;;;;;-1.18;91.72;101335.81;1786039;78;21105;-46
2020/12/28 05:02:28;;;;;;;0.47;0.28;;;;;;;-1.18;91.61;101324.57;1785846;80;21145;-46
2020/12/28 05:05:08;;;;;;;0.00;0.00;;;;;;;-1.16;91.58;101329.77;1722968;80;21126;-45
2020/12/28 05:07:37;;;;;;;0.15;0.15;;;;;;;-1.15;91.54;101336.78;1784227;80;21158;-46
2020/12/28 05:10:05;;;;;;;1.75;0.72;;;;;;;-1.13;91.54;101333.42;1767750;80;21391;-46
2020/12/28 05:12:32;;;;;;;0.20;0.20;;;;;;;-1.14;91.46;101327.23;1774725;80;21076;-49
2020/12/28 05:15:08;;;;;;;1.87;0.98;;;;;;;-1.12;91.44;101335.08;1784326;80;21101;-47
2020/12/28 05:17:35;;;;;;;1.77;0.55;;;;;;;-1.11;91.48;101333.56;1783855;80;21167;-48
2020/12/28 05:20:03;;;;;;;0.35;0.35;;;;;;;-1.09;91.72;101330.69;1783957;80;21148;-49
2020/12/28 05:22:31;;;;;;;0.13;0.13;;;;;;;-1.09;91.97;101328.00;1785582;80;21098;-49
2020/12/28 05:24:58;;;;;;;0.62;0.62;;;;;;;-1.10;92.20;101327.17;1786847;80;21121;-48
2020/12/28 05:27:26;;;;;;;0.85;0.53;;;;;;;-1.10;92.43;101323.66;1787002;80;21459;-48
2020/12/28 05:29:54;;;;;;;0.82;0.82;;;;;;;-1.10;92.70;101322.32;1788336;80;21596;-49
2020/12/28 05:32:23;;;;;;;0.10;0.10;;;;;;;-1.11;92.84;101324.17;1788982;80;21150;-48
2020/12/28 05:34:50;;;;;;;0.40;0.40;;;;;;;-1.12;93.01;101316.30;1788592;80;21425;-47
2020/12/28 05:37:18;;;;;;;0.50;0.50;;;;;;;-1.12;93.17;101325.69;1788357;80;21495;-48
2020/12/28 05:39:45;;;;;;;1.10;1.02;;;;;;;-1.12;93.25;101328.37;1737392;80;21161;-47
2020/12/28 05:42:14;;;;;;;1.90;1.17;;;;;;;-1.12;93.27;101327.03;1731370;81;21144;-46
2020/12/28 05:44:43;;;;;;;2.37;0.72;;;;;;;-1.12;93.33;101324.34;1768228;80;21135;-47
2020/12/28 05:47:15;;;;;;;0.28;0.28;;;;;;;-1.12;93.38;101313.62;1787582;80;21132;-47
2020/12/28 05:49:45;;;;;;;0.75;0.75;;;;;;;-1.12;93.41;101315.78;1786557;80;27482;-46
2020/12/28 05:52:14;;;;;;;1.55;0.75;;;;;;;-1.12;93.42;101312.27;1786297;80;21074;-48
2020/12/28 05:54:42;;;;;;;0.20;0.20;;;;;;;-1.12;93.44;101312.27;1787510;80;21147;-49
2020/12/28 05:57:10;;;;;;;1.00;0.90;;;;;;;-1.13;93.51;101306.59;1785538;80;21131;-48
2020/12/28 05:59:38;;;;;;;0.45;0.45;;;;;;;-1.14;93.36;101311.62;1786444;80;21156;-47
2020/12/28 06:02:08;;;;;;;0.65;0.65;;;;;;;-1.16;93.42;101315.02;1786462;80;21117;-49
2020/12/28 06:04:37;;;;;;;2.25;2.02;;;;;;;-1.17;93.40;101310.13;1787878;80;21548;-47
2020/12/28 06:07:05;;;;;;;0.50;0.50;;;;;;;-1.17;93.35;101311.47;1785519;80;21125;-48
2020/12/28 06:09:33;;;;;;;0.42;0.42;;;;;;;-1.17;93.42;101297.23;1784146;80;21126;-48
2020/12/28 06:12:08;;;;;;;5.42;0.95;;;;;;;-1.18;93.53;101304.97;1785342;80;21122;-48
2020/12/28 06:14:38;;;;;;;2.25;1.15;;;;;;;-1.19;93.69;101296.58;1785390;80;21146;-48
2020/12/28 06:17:08;;;;;;;3.80;1.00;;;;;;;-1.20;93.90;101289.56;1784052;80;21628;-47
2020/12/28 06:19:36;;;;;;;0.00;0.00;;;;;;;-1.23;94.06;101289.93;1782319;79;21481;-48
2020/12/28 06:22:06;;;;;;;0.33;0.33;;;;;;;-1.22;94.26;101301.80;1784983;80;21139;-47
2020/12/28 06:24:34;;;;;;;1.02;0.95;;;;;;;-1.22;94.32;101309.02;1777617;78;21106;-47
2020/12/28 06:27:06;;;;;;;0.30;0.30;;;;;;;-1.20;94.36;101314.52;1785277;80;21109;-48
2020/12/28 06:29:36;;;;;;;1.85;1.72;;;;;;;-1.17;94.31;101317.35;1785364;79;21118;-49
2020/12/28 06:32:14;;;;;;;0.72;0.72;;;;;;;-1.15;94.14;101315.33;1785551;80;21122;-49
2020/12/28 06:34:44;;;;;;;0.85;0.85;;;;;;;-1.12;94.12;101320.32;1785341;78;21126;-49
2020/12/28 06:37:12;;;;;;;1.07;0.68;;;;;;;-1.10;94.02;101318.30;1785459;80;21134;-48
2020/12/28 06:39:39;;;;;;;1.00;1.00;;;;;;;-1.06;93.88;101329.00;1785350;79;21422;-47
2020/12/28 06:42:13;;;;;;;0.80;0.80;;;;;;;-1.04;93.77;101322.92;1785525;80;21150;-48
2020/12/28 06:44:42;;;;;;;1.02;1.02;;;;;;;-1.01;93.51;101327.12;1785382;79;21129;-48
2020/12/28 06:47:22;;;;;;;0.45;0.45;;;;;;;-0.98;93.30;101332.95;1785561;80;21616;-47
2020/12/28 06:49:51;;;;;;;0.70;0.70;;;;;;;-0.95;93.16;101323.18;1785032;78;21114;-48
2020/12/28 06:52:19;;;;;;;0.20;0.20;;;;;;;-0.94;92.87;101330.23;1785329;80;21112;-48
2020/12/28 06:54:46;;;;;;;0.30;0.30;;;;;;;-0.91;92.68;101339.25;1785454;78;21580;-47
2020/12/28 06:57:13;;;;;;;0.72;0.70;;;;;;;-0.91;92.30;101325.02;1785581;80;21142;-48
2020/12/28 06:59:41;;;;;;;0.40;0.40;;;;;;;-0.90;92.20;101322.64;1785276;78;21414;-48
2020/12/28 07:02:08;;;;;;;3.92;0.57;;;;;;;-0.90;92.26;101316.76;1785388;80;21142;-48
2020/12/28 07:04:39;;;;;;;10.58;1.15;;;;;;;-0.90;92.28;101319.44;1785171;78;21572;-47
2020/12/28 07:07:07;;;;;;;3.40;0.88;;;;;;;-0.89;92.36;101320.27;1785445;80;21104;-48
2020/12/28 07:09:35;;;;;;;0.23;0.23;;;;;;;-0.89;92.27;101314.91;1787275;79;21137;-48
2020/12/28 07:12:08;;;;;;;2.52;0.90;;;;;;;-0.90;92.21;101306.03;1794343;79;21608;-48
2020/12/28 07:14:38;;;;;;;1.12;1.05;;;;;;;-0.88;92.28;101300.48;1794167;78;21129;-48
2020/12/28 07:17:06;;;;;;;0.45;0.45;;;;;;;-0.89;92.28;101300.14;1794408;79;21429;-48
2020/12/28 07:19:34;;;;;;;0.47;0.47;;;;;;;-0.90;92.21;101303.34;1794200;78;21101;-48
2020/12/28 07:22:02;;;;;;;1.07;0.98;;;;;;;-0.91;92.28;101294.98;1794372;79;21122;-48
2020/12/28 07:24:29;;;;;;;2.25;0.53;;;;;;;-0.92;92.36;101292.47;1794258;78;20975;-48
2020/12/28 07:26:57;;;;;;;0.40;0.40;;;;;;;-0.92;92.40;101283.08;1794406;79;21567;-49
2020/12/28 07:29:24;;;;;;;0.40;0.40;;;;;;;-0.93;92.42;101270.69;1794312;78;21129;-49
2020/12/28 07:31:52;;;;;;;0.45;0.45;;;;;;;-0.91;92.58;101272.69;1794396;79;20935;-49
2020/12/28 07:34:19;;;;;;;0.00;0.00;;;;;;;-0.90;92.67;101270.31;1718504;79;21157;-48
2020/12/28 07:36:51;;;;;;;0.20;0.20;;;;;;;-0.89;92.67;101262.58;1794442;79;21118;-48
2020/12/28 07:39:18;;;;;;;3.70;0.75;;;;;;;-0.85;92.56;101268.42;1794327;78;21513;-48
2020/12/28 07:41:46;;;;;;;5.83;0.65;;;;;;;-0.85;92.48;101259.03;1794377;79;21433;-48
2020/12/28 07:44:14;;;;;;;1.25;0.62;;;;;;;-0.84;92.56;101256.17;1794211;78;21091;-48
2020/12/28 07:46:58;;;;;;;1.85;1.70;;;;;;;-0.82;92.70;101247.92;1794219;79;21181;-49
2020/12/28 07:49:29;;;;;;;0.30;0.30;;;;;;;-0.80;92.66;101256.63;1794194;78;21109;-48
2020/12/28 07:52:10;;;;;;;0.55;0.55;;;;;;;-0.79;92.49;101258.28;1794411;79;21547;-47
2020/12/28 07:54:43;;;;;;;0.75;0.75;;;;;;;-0.81;92.49;101250.95;1794301;78;21193;-48
2020/12/28 07:57:15;;;;;;;;;;;;;;;-0.83;92.48;101252.98;1796991;79;21122;-49
2020/12/28 07:59:48;;;;;;;;;;;;;;;-0.84;92.63;101248.61;1797086;78;20672;-48
2020/12/28 08:02:57;;;;;;;0.90;0.90;;;;;;;-0.83;92.71;101251.64;1793995;79;20271;-49
2020/12/28 08:05:24;;;;;;;0.20;0.20;;;;;;;-0.84;92.71;101248.13;1794169;78;21130;-47
2020/12/28 08:07:52;;;;;;;0.93;0.15;;;;;;;-0.84;92.80;101252.64;1794320;79;21142;-49
2020/12/28 08:10:19;;;;;;;0.40;0.40;;;;;;;-0.82;92.88;101247.92;1794168;78;21145;-48
2020/12/28 08:12:52;;;;;;;0.82;0.72;;;;;;;-0.81;92.99;101244.23;1794340;79;21084;-48
2020/12/28 08:15:33;;;;;;;0.10;0.10;;;;;;;-0.80;93.06;101244.55;1794098;78;21158;-49
2020/12/28 08:18:08;;;;;;;0.78;0.78;;;;;;;-0.79;93.15;101244.86;1794127;79;21146;-49
2020/12/28 08:20:36;;;;;;;2.00;1.55;;;;;;;-0.76;93.14;101235.12;1793662;78;21438;-48
2020/12/28 08:23:04;;;;;;;0.90;0.57;;;;;;;-0.76;93.17;101238.63;1794398;79;21417;-50
2020/12/28 08:25:32;;;;;;;0.28;0.15;;;;;;;-0.76;93.12;101228.41;1794376;78;21396;-49
2020/12/28 08:28:01;;;;;;;0.55;0.55;;;;;;;-0.76;93.11;101225.73;1794288;79;21133;-49
2020/12/28 08:30:29;;;;;;;1.37;1.27;;;;;;;-0.74;93.02;101222.33;1794319;78;21157;-49
2020/12/28 08:32:59;;;;;;;0.62;0.62;;;;;;;-0.74;92.96;101227.20;1794259;79;21177;-48
2020/12/28 08:35:26;;;;;;;0.20;0.20;;;;;;;-0.73;92.90;101218.64;1794250;78;21122;-49
2020/12/28 08:37:55;;;;;;;1.10;0.90;;;;;;;-0.71;92.92;101215.27;1794443;79;21129;-48
2020/12/28 08:40:23;;;;;;;0.03;0.03;;;;;;;-0.68;92.90;101216.23;1794277;78;21178;-48
2020/12/28 08:42:57;;;;;;;0.15;0.10;;;;;;;-0.66;92.71;101214.19;1794373;79;21563;-48
2020/12/28 08:45:26;;;;;;;4.40;1.75;;;;;;;-0.65;92.73;101208.62;1794041;78;21087;-48
2020/12/28 08:47:56;;;;;;;0.55;0.55;;;;;;;-0.62;92.65;101205.24;1794357;79;21133;-47
2020/12/28 08:50:25;;;;;;;0.68;0.68;;;;;;;-0.59;92.63;101203.03;1794186;78;21528;-47
2020/12/28 08:52:57;;;;;;;0.25;0.25;;;;;;;-0.55;92.64;101198.11;1794233;79;21133;-50
2020/12/28 08:55:25;;;;;;;0.40;0.40;;;;;;;-0.49;92.53;101194.69;1794286;78;21209;-48
2020/12/28 08:57:56;;;;;;;2.45;0.78;;;;;;;-0.42;92.54;101196.09;1794488;79;21134;-48
2020/12/28 09:00:24;;;;;;;0.00;0.00;;;;;;;-0.36;92.26;101194.83;1794451;78;21161;-49
2020/12/28 09:02:55;;;;;;;0.17;0.17;;;;;;;-0.29;92.15;101196.26;1794378;79;21117;-48
2020/12/28 09:05:30;;;;;;;0.70;0.70;;;;;;;-0.23;91.91;101184.22;1794317;78;21165;-48
2020/12/28 09:07:58;;;;;;;2.35;2.15;;;;;;;-0.15;91.64;101185.95;1794498;79;21545;-49
2020/12/28 09:10:25;;;;;;;1.85;1.75;;;;;;;-0.09;91.32;101183.86;1792023;78;21121;-49
2020/12/28 09:12:54;;;;;;;0.40;0.40;;;;;;;-0.03;91.19;101176.36;1785576;80;21205;-48
2020/12/28 09:15:21;;;;;;;1.50;1.40;;;;;;;0.04;90.95;101184.50;1785487;79;21102;-49
2020/12/28 09:17:49;;;;;;;1.95;1.35;;;;;;;0.10;90.77;101174.83;1785614;80;21157;-48
2020/12/28 09:20:16;;;;;;;2.02;1.50;;;;;;;0.11;90.22;101163.89;1785436;79;21591;-48
2020/12/28 09:22:44;;;;;;;0.62;0.62;;;;;;;0.10;89.88;101160.05;1785483;80;21106;-48
2020/12/28 09:25:12;;;;;;;1.60;1.50;;;;;;;0.05;89.21;101158.45;1785494;79;21221;-48
2020/12/28 09:27:39;;;;;;;0.53;0.53;;;;;;;0.01;89.37;101150.48;1785614;80;21422;-49
2020/12/28 09:30:07;;;;;;;2.30;1.67;;;;;;;-0.01;89.36;101143.42;1785453;79;21145;-47
2020/12/28 09:32:36;;;;;;;1.20;1.20;;;;;;;0.01;89.34;101157.20;1785538;80;21447;-49
2020/12/28 09:35:03;;;;;;;1.12;0.40;;;;;;;0.02;89.33;101156.16;1785552;79;21452;-49
2020/12/28 09:37:31;;;;;;;0.05;0.05;;;;;;;0.02;89.22;101145.41;1785675;80;21102;-48
2020/12/28 09:39:59;;;;;;;0.35;0.35;;;;;;;0.01;88.87;101135.70;1785495;78;21177;-48
2020/12/28 09:42:27;;;;;;;2.22;1.82;;;;;;;-0.03;89.08;101140.61;1785519;80;21133;-49
2020/12/28 09:44:55;;;;;;;1.42;1.17;;;;;;;-0.05;89.11;101140.82;1785499;78;21098;-50
2020/12/28 09:47:22;;;;;;;0.30;0.30;;;;;;;-0.09;89.12;101127.44;1785516;80;21134;-48
2020/12/28 09:49:50;;;;;;;0.15;0.15;;;;;;;-0.10;89.27;101126.28;1785420;78;21213;-48
2020/12/28 09:52:18;;;;;;;0.10;0.10;;;;;;;-0.15;88.99;101118.79;1785470;80;21118;-49
2020/12/28 09:54:45;;;;;;;0.25;0.25;;;;;;;-0.17;89.23;101120.86;1785427;78;21170;-50
2020/12/28 09:57:13;;;;;;;0.72;0.72;;;;;;;-0.18;89.33;101103.58;1785507;80;21118;-49
2020/12/28 09:59:42;;;;;;;2.30;1.20;;;;;;;-0.17;89.41;101107.44;1785434;79;21146;-51
2020/12/28 10:02:10;;;;;;;0.20;0.20;;;;;;;-0.18;89.50;101099.03;1785377;80;21102;-48
2020/12/28 10:04:38;;;;;;;1.15;1.15;;;;;;;-0.19;89.54;101090.67;1785406;78;21673;-49
2020/12/28 10:07:05;;;;;;;0.62;0.62;;;;;;;-0.19;89.64;101087.98;1785366;80;21124;-49
2020/12/28 10:09:32;;;;;;;0.57;0.57;;;;;;;-0.19;89.81;101075.08;1785474;78;21638;-50
2020/12/28 10:12:00;;;;;;;0.82;0.82;;;;;;;-0.19;89.91;101083.95;1785420;78;21125;-48
2020/12/28 10:14:27;;;;;;;0.75;0.60;;;;;;;-0.20;89.90;101080.93;1785472;78;21121;-49
2020/12/28 10:16:55;;;;;;;1.00;0.25;;;;;;;-0.22;89.98;101084.34;1785531;80;21585;-49
2020/12/28 10:19:22;;;;;;;0.10;0.10;;;;;;;-0.24;90.01;101097.96;1785362;78;21161;-51
2020/12/28 10:21:50;;;;;;;1.15;1.07;;;;;;;-0.25;90.06;101105.71;1785429;80;21118;-48
2020/12/28 10:24:17;;;;;;;0.72;0.72;;;;;;;-0.27;90.12;101090.81;1785386;78;21142;-49
2020/12/28 10:26:45;;;;;;;0.20;0.20;;;;;;;-0.29;90.22;101086.14;1785472;80;21572;-49
2020/12/28 10:29:13;;;;;;;0.00;0.00;;;;;;;-0.32;90.41;101093.22;1785359;79;21114;-49
2020/12/28 10:31:41;;;;;;;0.75;0.75;;;;;;;-0.33;90.62;101092.39;1785321;80;21174;-49
2020/12/28 10:34:08;;;;;;;0.17;0.17;;;;;;;-0.33;90.80;101082.99;1785206;78;21153;-49
2020/12/28 10:36:35;;;;;;;1.10;0.78;;;;;;;-0.33;90.90;101070.08;1785455;80;21103;-51
2020/12/28 10:39:05;;;;;;;0.20;0.20;;;;;;;-0.33;91.03;101056.13;1781080;78;21134;-49
2020/12/28 10:41:35;;;;;;;0.78;0.78;;;;;;;-0.32;91.16;101050.24;1785597;80;21118;-48
2020/12/28 10:44:02;;;;;;;0.80;0.35;;;;;;;-0.33;91.25;101043.22;1785426;78;21213;-48
2020/12/28 10:46:34;;;;;;;4.90;1.17;;;;;;;-0.34;91.30;101042.40;1785502;80;21164;-49
2020/12/28 10:49:03;;;;;;;1.92;0.85;;;;;;;-0.34;91.45;101053.66;1785437;78;21586;-48
2020/12/28 10:51:31;;;;;;;0.53;0.53;;;;;;;-0.35;91.54;101056.01;1785411;80;21173;-50
2020/12/28 10:53:59;;;;;;;0.00;0.00;;;;;;;-0.37;91.61;101045.97;1785428;78;21378;-49
2020/12/28 10:56:29;;;;;;;0.42;0.35;;;;;;;-0.37;91.82;101036.56;1785375;80;21572;-49
2020/12/28 10:58:58;;;;;;;0.35;0.35;;;;;;;-0.39;91.93;101041.33;1785411;78;21122;-50
2020/12/28 11:01:27;;;;;;;0.30;0.30;;;;;;;-0.40;92.08;101031.59;1785389;80;21102;-49
2020/12/28 11:03:55;;;;;;;0.82;0.82;;;;;;;-0.41;92.20;101026.73;1785574;78;21145;-48
2020/12/28 11:06:23;;;;;;;0.30;0.30;;;;;;;-0.41;92.27;101029.42;1785373;80;21158;-48
2020/12/28 11:08:51;;;;;;;0.10;0.10;;;;;;;-0.39;92.37;101026.55;1785399;78;21138;-48
2020/12/28 11:11:21;;;;;;;0.50;0.50;;;;;;;-0.39;92.45;101017.16;1784909;79;21544;-48
2020/12/28 11:13:50;;;;;;;0.75;0.75;;;;;;;-0.38;92.58;101010.75;1785368;78;21154;-48
2020/12/28 11:16:26;;;;;;;0.08;0.08;;;;;;;-0.38;92.72;100995.98;1785408;80;21126;-50
2020/12/28 11:18:55;;;;;;;0.45;0.45;;;;;;;-0.35;92.73;100992.38;1785420;78;21122;-50
2020/12/28 11:21:23;;;;;;;0.55;0.55;;;;;;;-0.34;92.74;100998.09;1785302;80;21605;-49
2020/12/28 11:24:01;;;;;;;0.23;0.23;;;;;;;-0.31;92.73;100999.55;1785349;78;21145;-48
2020/12/28 11:26:34;;;;;;;1.17;1.17;;;;;;;-0.31;92.74;100998.21;1785356;80;21523;-49
2020/12/28 11:29:04;;;;;;;1.42;0.57;;;;;;;-0.32;92.77;100989.33;1785648;78;21193;-48
2020/12/28 11:31:31;;;;;;;2.72;0.62;;;;;;;-0.31;92.82;101003.06;1785538;80;21133;-49
2020/12/28 11:33:59;;;;;;;0.65;0.60;;;;;;;-0.31;92.74;101003.06;1785426;79;21776;-49
2020/12/28 11:36:26;;;;;;;0.47;0.47;;;;;;;-0.32;92.74;100986.64;1785409;80;21110;-50
2020/12/28 11:38:54;;;;;;;0.40;0.40;;;;;;;-0.32;92.66;100977.73;1785481;78;21525;-49
2020/12/28 11:41:21;;;;;;;1.50;0.88;;;;;;;-0.33;92.72;100964.83;1785414;80;21114;-49
2020/12/28 11:43:49;;;;;;;1.07;0.55;;;;;;;-0.33;92.79;100976.09;1785441;78;21148;-49